Champlain, Virginia
Current Conditions -  °F | °C
As of 6:55 AM on Thursday 23 Oct 2014 (Local Time) from KXSA Reporting Station
Overcast Overcast  
Wind Chill: 53°   Ceiling: 4300
Heat Index: 53°   Visibility: 10mi
Dew Point: 39°   Wind: 8mph
Humidity: 60%   Direction: 290°WNW
Pressure: 29.91"   Gusts: NA
Location:  38.01°N, 76.99°W
Report Text: KXSA 231055Z AUTO 29007KT 10SM BKN043 OVC049 12/04 A2991 RMK AO2 T01150040
Loading
Personal Weather Stations






























Interactive Weather Map
Tropical Storm Tracking
New forecast layout! Learn more

10-Day Weather Forecast

Advertisements
Track Severe Weather on mobile